createdAt,value
2023-09-21T00:01:30.351Z,17.70
2023-09-21T00:04:34.560Z,17.60
2023-09-21T00:07:38.547Z,17.60
2023-09-21T00:10:42.481Z,17.60
2023-09-21T00:13:45.447Z,17.50
2023-09-21T00:16:49.945Z,17.50
2023-09-21T00:19:52.937Z,17.40
2023-09-21T00:22:56.845Z,17.50
2023-09-21T00:26:01.512Z,17.40
2023-09-21T00:29:06.175Z,17.40
2023-09-21T00:32:10.752Z,17.40
2023-09-21T00:35:16.545Z,17.50
2023-09-21T00:38:20.812Z,17.40
2023-09-21T00:41:23.762Z,17.40
2023-09-21T00:44:27.664Z,17.40
2023-09-21T00:47:32.060Z,17.30
2023-09-21T00:50:35.129Z,17.30
2023-09-21T00:53:40.813Z,17.20
2023-09-21T00:56:44.182Z,17.20
2023-09-21T00:59:47.431Z,17.30
2023-09-21T01:02:52.069Z,17.20
2023-09-21T01:05:55.218Z,17.20
2023-09-21T01:08:58.802Z,17.20
2023-09-21T01:12:06.471Z,17.20
2023-09-21T01:15:10.996Z,17.20
2023-09-21T01:18:17.729Z,17.20
2023-09-21T01:21:28.490Z,17.10
2023-09-21T01:24:32.805Z,17.10
2023-09-21T01:27:36.293Z,17.20
2023-09-21T01:30:40.010Z,17.20
2023-09-21T01:33:44.372Z,17.20
2023-09-21T01:36:48.037Z,17.20
2023-09-21T01:39:52.413Z,17.20
2023-09-21T01:42:55.597Z,17.20
2023-09-21T01:45:59.087Z,17.30
2023-09-21T01:49:02.112Z,17.10
2023-09-21T01:52:05.778Z,17.10
2023-09-21T01:55:12.449Z,17.10
2023-09-21T01:58:16.395Z,17.10
2023-09-21T02:01:19.840Z,17.00
2023-09-21T02:04:22.954Z,17.00
2023-09-21T02:07:26.009Z,17.00
2023-09-21T02:10:30.293Z,17.10
2023-09-21T02:13:34.681Z,17.20
2023-09-21T02:16:38.000Z,17.30
2023-09-21T02:19:42.343Z,17.20
2023-09-21T02:22:47.468Z,17.20
2023-09-21T02:25:53.411Z,16.60
2023-09-21T02:28:56.855Z,17.20
2023-09-21T02:31:59.835Z,17.10
2023-09-21T02:35:04.408Z,17.10
2023-09-21T02:38:07.333Z,17.10
2023-09-21T02:41:11.651Z,17.10
2023-09-21T02:44:15.338Z,17.20
2023-09-21T02:47:20.624Z,17.10
2023-09-21T02:50:26.677Z,17.00
2023-09-21T02:53:29.604Z,17.00
2023-09-21T02:56:34.565Z,17.10
2023-09-21T02:59:37.526Z,17.00
2023-09-21T03:02:40.580Z,17.00
2023-09-21T03:05:47.655Z,17.00
2023-09-21T03:08:50.857Z,16.90
2023-09-21T03:11:55.410Z,16.90
2023-09-21T03:14:58.540Z,16.90
2023-09-21T03:18:01.913Z,16.90
2023-09-21T03:21:12.982Z,16.90
2023-09-21T03:24:16.020Z,16.80
2023-09-21T03:27:21.054Z,16.80
2023-09-21T03:30:25.626Z,16.80
2023-09-21T03:33:28.637Z,16.60
2023-09-21T03:36:34.846Z,16.60
2023-09-21T03:39:38.348Z,16.60
2023-09-21T03:42:43.415Z,16.40
2023-09-21T03:45:47.852Z,16.40
2023-09-21T03:48:51.263Z,16.40
2023-09-21T03:51:54.250Z,16.40
2023-09-21T03:54:57.281Z,16.50
2023-09-21T03:58:01.809Z,16.50
2023-09-21T04:01:07.445Z,16.50
2023-09-21T04:04:19.132Z,16.50
2023-09-21T04:07:22.595Z,16.50
2023-09-21T04:10:25.926Z,16.40
2023-09-21T04:13:30.208Z,16.40
2023-09-21T04:16:33.231Z,16.40
2023-09-21T04:19:36.735Z,16.30
2023-09-21T04:22:40.547Z,16.10
2023-09-21T04:25:48.405Z,16.20
2023-09-21T04:28:53.091Z,16.30
2023-09-21T04:31:56.110Z,16.30
2023-09-21T04:35:00.691Z,16.30
2023-09-21T04:38:05.232Z,16.20
2023-09-21T04:41:14.316Z,16.20
2023-09-21T04:44:18.769Z,16.10
2023-09-21T04:47:21.789Z,16.10
2023-09-21T04:50:24.898Z,16.00
2023-09-21T04:53:28.385Z,16.10
2023-09-21T04:56:31.330Z,16.10
2023-09-21T04:59:36.397Z,15.90
2023-09-21T05:02:39.425Z,16.00
2023-09-21T05:05:42.686Z,16.10
2023-09-21T05:08:45.919Z,16.20
2023-09-21T05:11:51.952Z,16.20
2023-09-21T05:14:56.261Z,16.20
2023-09-21T05:17:59.487Z,16.10
2023-09-21T05:21:05.809Z,16.00
2023-09-21T05:24:10.026Z,16.10
2023-09-21T05:27:13.172Z,16.20
2023-09-21T05:30:20.263Z,16.30
2023-09-21T05:33:23.918Z,16.30
2023-09-21T05:36:27.155Z,16.40
2023-09-21T05:39:30.127Z,16.40
2023-09-21T05:42:33.365Z,16.50
2023-09-21T05:45:37.797Z,16.50
2023-09-21T05:48:43.244Z,16.50
2023-09-21T05:51:48.437Z,16.60
2023-09-21T05:54:51.450Z,16.60
2023-09-21T05:57:54.379Z,16.50
2023-09-21T06:01:00.955Z,16.60
2023-09-21T06:04:04.257Z,16.60
2023-09-21T06:07:07.350Z,16.70
2023-09-21T06:10:11.134Z,16.90
2023-09-21T06:13:14.085Z,17.00
2023-09-21T06:16:18.800Z,17.10
2023-09-21T06:19:21.874Z,17.20
2023-09-21T06:22:24.902Z,17.30
2023-09-21T06:25:29.073Z,17.40
2023-09-21T06:28:34.374Z,17.50
2023-09-21T06:31:38.766Z,17.50
2023-09-21T06:34:44.384Z,17.70
2023-09-21T06:37:49.169Z,17.90
2023-09-21T06:40:52.104Z,18.10
2023-09-21T06:43:55.042Z,18.00
2023-09-21T06:46:59.418Z,18.10
2023-09-21T06:50:02.424Z,18.10
2023-09-21T06:53:05.662Z,18.20
2023-09-21T06:56:08.640Z,18.40
2023-09-21T06:59:11.555Z,18.50
2023-09-21T07:02:15.953Z,18.70
2023-09-21T07:05:19.459Z,18.80
2023-09-21T07:08:22.756Z,19.20
2023-09-21T07:11:25.762Z,19.20
2023-09-21T07:14:28.716Z,19.20
2023-09-21T07:17:35.048Z,19.30
2023-09-21T07:20:39.355Z,19.50
2023-09-21T07:23:42.832Z,19.70
2023-09-21T07:26:47.189Z,19.90
2023-09-21T07:29:50.353Z,20.10
2023-09-21T07:32:55.644Z,20.30
2023-09-21T07:35:58.809Z,20.40
2023-09-21T07:39:01.854Z,20.50
2023-09-21T07:42:05.981Z,20.60
2023-09-21T07:45:10.536Z,20.70
2023-09-21T07:48:17.229Z,20.60
2023-09-21T07:51:22.254Z,20.80
2023-09-21T07:54:25.322Z,21.10
2023-09-21T07:57:28.337Z,21.30
2023-09-21T08:00:31.773Z,21.50
2023-09-21T08:03:36.351Z,21.60
2023-09-21T08:06:39.403Z,21.60
2023-09-21T08:09:42.365Z,21.60
2023-09-21T08:12:46.115Z,21.60
2023-09-21T08:15:49.516Z,21.80
2023-09-21T08:18:53.947Z,21.90
2023-09-21T08:21:57.220Z,22.10
2023-09-21T08:25:00.272Z,22.30
2023-09-21T08:28:04.602Z,22.40
2023-09-21T08:31:10.273Z,22.40
2023-09-21T08:34:14.606Z,22.50
2023-09-21T08:37:19.089Z,22.70
2023-09-21T08:40:24.020Z,22.70
2023-09-21T08:43:27.685Z,22.80
2023-09-21T08:46:31.928Z,22.80
2023-09-21T08:49:36.858Z,23.10
2023-09-21T08:52:40.860Z,23.20
2023-09-21T08:55:44.887Z,23.40
2023-09-21T08:58:49.650Z,23.40
2023-09-21T09:01:52.872Z,23.50
2023-09-21T09:04:57.851Z,23.60
2023-09-21T09:08:02.637Z,23.80
2023-09-21T09:11:07.786Z,23.90
2023-09-21T09:14:15.456Z,24.00
2023-09-21T09:17:18.773Z,24.10
2023-09-21T09:20:23.959Z,24.20
2023-09-21T09:23:26.916Z,24.20
2023-09-21T09:26:30.217Z,24.40
2023-09-21T09:29:34.644Z,24.50
2023-09-21T09:32:42.313Z,24.60
2023-09-21T09:35:50.109Z,24.80
2023-09-21T09:38:53.563Z,24.90
2023-09-21T09:41:57.248Z,25.10
2023-09-21T09:45:04.595Z,25.20
2023-09-21T09:48:13.503Z,25.40
2023-09-21T09:51:23.863Z,25.50
2023-09-21T09:54:27.571Z,25.70
2023-09-21T09:57:31.699Z,25.90
2023-09-21T10:00:36.794Z,26.10
2023-09-21T10:03:41.313Z,26.20
2023-09-21T10:06:46.871Z,26.30
2023-09-21T10:09:49.837Z,26.60
2023-09-21T10:12:54.667Z,26.70
2023-09-21T10:16:02.607Z,26.90
2023-09-21T10:19:07.401Z,26.90
2023-09-21T10:22:29.347Z,27.10
2023-09-21T10:25:40.124Z,27.20
2023-09-21T10:28:44.167Z,27.50
2023-09-21T10:31:48.182Z,27.60
2023-09-21T10:34:51.911Z,27.80
2023-09-21T10:38:13.834Z,28.00
2023-09-21T10:41:32.481Z,28.20
2023-09-21T10:45:03.496Z,28.30
2023-09-21T10:48:08.045Z,28.40
2023-09-21T10:51:11.425Z,28.40
2023-09-21T10:54:15.767Z,28.60
2023-09-21T10:57:25.401Z,28.70
2023-09-21T11:00:29.006Z,28.50
2023-09-21T11:03:32.189Z,28.50
2023-09-21T11:06:35.553Z,28.80
2023-09-21T11:09:39.889Z,28.90
2023-09-21T11:12:43.324Z,29.10
2023-09-21T11:15:47.132Z,29.30
2023-09-21T11:18:51.525Z,29.40
2023-09-21T11:21:54.693Z,29.60
2023-09-21T11:24:59.738Z,29.50
2023-09-21T11:28:02.937Z,29.50
2023-09-21T11:31:06.659Z,29.70
2023-09-21T11:34:12.663Z,29.70
2023-09-21T11:37:16.864Z,29.80
2023-09-21T11:40:24.327Z,30.30
2023-09-21T11:43:27.655Z,30.60
2023-09-21T11:46:31.036Z,30.70
2023-09-21T11:49:41.138Z,30.80
2023-09-21T11:52:44.961Z,30.90
2023-09-21T11:55:49.297Z,30.60
2023-09-21T11:58:55.089Z,30.90
2023-09-21T12:01:58.142Z,30.70
2023-09-21T12:05:01.580Z,30.90
2023-09-21T12:08:06.628Z,30.80
2023-09-21T12:11:13.020Z,31.20
2023-09-21T12:14:15.981Z,30.90
2023-09-21T12:17:20.660Z,30.70
2023-09-21T12:20:24.779Z,30.60
2023-09-21T12:23:28.553Z,30.90
2023-09-21T12:26:34.278Z,31.30
2023-09-21T12:29:37.907Z,31.40
2023-09-21T12:32:41.647Z,31.30
2023-09-21T12:35:44.824Z,31.00
2023-09-21T12:38:47.847Z,31.50
2023-09-21T12:41:52.282Z,31.60
2023-09-21T12:44:55.688Z,31.60
2023-09-21T12:47:59.677Z,32.00
2023-09-21T12:51:02.880Z,31.70
2023-09-21T12:54:08.292Z,31.60
2023-09-21T12:57:16.594Z,31.60
2023-09-21T13:00:20.181Z,31.70
2023-09-21T13:03:23.421Z,31.60
2023-09-21T13:06:26.821Z,31.80
2023-09-21T13:09:38.700Z,32.20
2023-09-21T13:12:55.366Z,32.10
2023-09-21T13:15:59.570Z,32.40
2023-09-21T13:19:02.580Z,32.60
2023-09-21T13:22:05.981Z,32.60
2023-09-21T13:25:09.737Z,32.70
2023-09-21T13:28:14.047Z,32.60
2023-09-21T13:31:18.388Z,32.70
2023-09-21T13:34:22.601Z,32.70
2023-09-21T13:37:25.538Z,32.40
2023-09-21T13:40:30.547Z,32.20
2023-09-21T13:43:35.288Z,32.40
2023-09-21T13:46:38.237Z,32.20
2023-09-21T13:49:41.545Z,32.00
2023-09-21T13:52:45.072Z,32.10
2023-09-21T13:55:48.401Z,32.20
2023-09-21T13:58:52.785Z,32.30
2023-09-21T14:01:55.722Z,32.20
2023-09-21T14:04:59.491Z,32.30
2023-09-21T14:08:06.351Z,32.40
2023-09-21T14:11:09.314Z,32.10
2023-09-21T14:14:13.629Z,31.80
2023-09-21T14:17:16.880Z,31.70
2023-09-21T14:20:22.403Z,31.70
2023-09-21T14:23:25.344Z,31.50
2023-09-21T14:26:28.638Z,31.40
2023-09-21T14:29:33.113Z,31.20
2023-09-21T14:32:36.648Z,30.90
